Terminal Aerodrome Forecast
Issued by NWS

Home | Current Version | Previous Version | Text Only | Print | Product List | Glossary On
Versions: 1 2 3 4 5 6 7 8 9 10 11 12 13 14 15 16 17
228
FTUS43 KPAH 280713 AAA
TAFCGI
TAF AMD
KCGI 280713Z 2807/2906 00000KT 3SM BR SKC
      TEMPO 2808/2812 1SM BR
     FM281500 09003KT P6SM SCT050
     FM282030 08006KT P6SM VCSH BKN050
     FM290100 11003KT P6SM SKC=

USA.gov is the U.S. government's official web portal to all federal, state and local government web resources and services.